Terminal Aerodrome Forecast
Issued by NWS

Home | Current Version | Previous Version | Graphics & Text | Print | Product List | Glossary On
Versions: 1 2 3 4 5 6 7 8 9 10 11 12 13 14 15 16 17 18 19 20 21 22
000
FTUS43 KGRB 262300
TAFCWA
TAF
KCWA 262340Z 2700/2724 13004KT 6SM BR SCT007 OVC015
      TEMPO 2700/2703 2SM -FZDZSN BR BKN007
     FM270300 09003KT 4SM BR SCT004 OVC009
      TEMPO 2703/2707 2SM -FZDZSN BR BKN004
     FM270800 03004KT 3SM -SN BR OVC003
     FM271700 VRB03KT P6SM BKN012
      AMD LTD TO CLD VIS AND WIND 2703/2711=

USA.gov is the U.S. government's official web portal to all federal, state and local government web resources and services.